Time;durP1;ratioP1;P1;durP2;ratioP2;P2;SDS_P1;SDS_P2;PMS_P1;PMS_P2;Temp;Humidity;BMP_temperature;BMP_pressure;BME280_temperature;BME280_humidity;BME280_pressure;Samples;Min_cycle;Max_cycle;Signal;HPM_P1;HPM_P2
2021/12/31 00:02:55;;;;;;;19.00;11.30;;;;;;;8.41;75.70;98944.41;211671;1316;139450;-59
2021/12/31 00:07:59;;;;;;;18.30;11.70;;;;;;;8.48;75.86;98947.35;211494;1316;139964;-59
2021/12/31 00:13:02;;;;;;;20.20;12.50;;;;;;;8.59;75.90;98953.66;211675;1313;139667;-57
2021/12/31 00:18:05;;;;;;;14.30;9.60;;;;;;;8.68;75.99;98956.01;211629;1313;139333;-59
2021/12/31 00:23:10;;;;;;;13.30;7.90;;;;;;;8.74;75.87;98956.70;211640;1313;138992;-62
2021/12/31 00:28:13;;;;;;;14.10;7.90;;;;;;;8.78;76.10;98958.98;211646;1313;139025;-58
2021/12/31 00:33:16;;;;;;;8.60;5.80;;;;;;;8.83;76.12;98963.85;211597;1316;139970;-58
2021/12/31 00:38:20;;;;;;;7.90;4.80;;;;;;;8.93;76.49;98971.24;211495;1316;139233;-60
2021/12/31 00:43:23;;;;;;;7.70;4.80;;;;;;;9.05;76.51;98974.06;211520;1315;139376;-60
2021/12/31 00:48:26;;;;;;;6.10;4.30;;;;;;;9.13;76.60;98974.69;211552;1313;139138;-58
2021/12/31 00:53:29;;;;;;;7.30;4.60;;;;;;;9.18;76.56;98972.44;211635;1313;138685;-59
2021/12/31 00:58:37;;;;;;;6.30;3.70;;;;;;;9.26;76.63;98972.35;211583;1313;139473;-60
2021/12/31 01:03:40;;;;;;;6.10;3.80;;;;;;;9.32;76.89;98976.77;211614;1316;139162;-60
2021/12/31 01:08:44;;;;;;;7.40;4.00;;;;;;;9.36;76.75;98975.68;211801;1314;139063;-58
2021/12/31 01:14:00;;;;;;;6.80;4.70;;;;;;;9.35;76.93;98981.59;211644;1313;139743;-60
2021/12/31 01:24:07;;;;;;;6.50;4.50;;;;;;;9.43;76.82;98995.23;211529;1316;140531;-61
2021/12/31 01:29:10;;;;;;;7.20;4.60;;;;;;;9.46;77.18;98993.83;211796;1314;139090;-59
2021/12/31 01:34:13;;;;;;;5.50;4.10;;;;;;;9.49;77.18;98994.54;211516;1316;138837;-60
2021/12/31 01:39:16;;;;;;;5.00;4.20;;;;;;;9.50;77.01;98989.16;211623;1316;139563;-61
2021/12/31 01:44:22;;;;;;;8.20;4.20;;;;;;;9.54;76.87;98997.27;211695;1314;138865;-61
2021/12/31 01:49:34;;;;;;;;;;;;;;;9.55;77.21;98999.68;211756;1316;138557;-57
2021/12/31 01:54:38;;;;;;;6.70;5.00;;;;;;;9.56;77.39;98998.41;211685;1316;124992;-60
2021/12/31 01:59:41;;;;;;;6.00;4.90;;;;;;;9.56;77.07;98999.27;211475;1316;139415;-59
2021/12/31 02:04:44;;;;;;;7.40;5.30;;;;;;;9.56;77.06;98998.96;211633;1315;139187;-59
2021/12/31 02:09:51;;;;;;;9.50;5.60;;;;;;;9.53;77.05;99001.41;211507;1314;139746;-59
2021/12/31 02:14:54;;;;;;;7.70;5.10;;;;;;;9.51;77.40;98999.59;211771;1316;139350;-59
2021/12/31 02:20:04;;;;;;;7.10;5.40;;;;;;;9.55;77.41;99002.36;211364;1317;139207;-59
2021/12/31 02:25:08;;;;;;;9.40;6.10;;;;;;;9.61;77.38;98995.24;211489;1315;140232;-61
2021/12/31 02:30:11;;;;;;;8.90;6.30;;;;;;;9.63;77.70;98996.55;211663;1316;138617;-63
2021/12/31 02:35:15;;;;;;;8.10;5.40;;;;;;;9.62;77.21;98999.66;211490;1317;138441;-60
2021/12/31 02:40:19;;;;;;;6.90;5.30;;;;;;;9.63;77.39;98998.34;211450;1309;139600;-60
2021/12/31 02:45:30;;;;;;;8.70;5.70;;;;;;;9.67;77.63;99005.51;211427;1315;139932;-62
2021/12/31 02:50:40;;;;;;;7.50;5.90;;;;;;;9.73;77.41;99005.04;211409;1315;138989;-63
2021/12/31 02:55:44;;;;;;;7.20;5.70;;;;;;;9.74;77.25;99001.76;211557;1314;138809;-59
2021/12/31 03:00:47;;;;;;;6.50;5.10;;;;;;;9.79;77.60;99004.84;211473;1316;139908;-60
2021/12/31 03:05:54;;;;;;;6.40;5.40;;;;;;;9.84;77.31;98998.87;211477;1318;141828;-59
2021/12/31 03:11:00;;;;;;;6.10;5.40;;;;;;;9.83;77.39;99000.86;211451;1316;139142;-60
2021/12/31 03:16:04;;;;;;;6.60;5.50;;;;;;;9.82;77.57;99003.61;211589;1316;138757;-58
2021/12/31 03:21:12;;;;;;;7.00;5.40;;;;;;;9.78;77.60;99003.81;211534;1316;139689;-58
2021/12/31 03:26:16;;;;;;;7.30;6.10;;;;;;;9.77;77.72;99010.27;211465;1315;140678;-56
2021/12/31 03:31:19;;;;;;;6.90;5.60;;;;;;;9.75;77.67;99012.52;211365;1311;139478;-59
2021/12/31 03:36:22;;;;;;;7.20;6.00;;;;;;;9.77;77.85;99012.06;211542;1316;139391;-60
2021/12/31 03:41:26;;;;;;;6.80;6.10;;;;;;;9.76;77.61;99009.42;211333;1316;139181;-60
2021/12/31 03:46:29;;;;;;;6.90;6.10;;;;;;;9.77;77.80;99008.89;211371;1316;138928;-59
2021/12/31 03:51:32;;;;;;;7.50;6.00;;;;;;;9.77;77.93;99008.67;211368;1316;138962;-60
2021/12/31 03:56:35;;;;;;;6.00;5.40;;;;;;;9.82;77.87;99011.26;211558;1314;140321;-58
2021/12/31 04:01:40;;;;;;;7.30;6.00;;;;;;;9.84;77.90;99013.41;211561;1316;139363;-60
2021/12/31 04:06:44;;;;;;;7.20;6.00;;;;;;;9.87;77.83;99014.84;211574;1312;139109;-59
2021/12/31 04:11:47;;;;;;;6.30;4.90;;;;;;;9.88;77.97;99012.28;211424;1316;139893;-58
2021/12/31 04:16:49;;;;;;;7.30;5.10;;;;;;;9.88;77.81;99011.22;211657;1313;139627;-61
2021/12/31 04:21:52;;;;;;;6.10;5.10;;;;;;;9.88;77.89;99017.78;211543;1316;140203;-59
2021/12/31 04:26:56;;;;;;;6.20;4.80;;;;;;;9.91;78.20;99022.36;211656;1316;138577;-61
2021/12/31 04:32:00;;;;;;;4.90;4.20;;;;;;;9.94;78.10;99028.92;211485;1316;139610;-61
2021/12/31 04:37:04;;;;;;;5.00;4.50;;;;;;;9.94;78.01;99030.31;211348;1316;139260;-60
2021/12/31 04:42:07;;;;;;;7.70;4.50;;;;;;;9.95;78.02;99026.56;211364;1315;138565;-60
2021/12/31 04:47:10;;;;;;;4.00;3.60;;;;;;;9.95;78.06;99022.65;211480;1316;139959;-57
2021/12/31 04:52:13;;;;;;;3.90;3.10;;;;;;;9.96;77.84;99013.23;211441;1316;139793;-58
2021/12/31 04:57:16;;;;;;;4.70;3.30;;;;;;;9.98;78.17;99015.20;211601;1316;139360;-59
2021/12/31 05:02:19;;;;;;;3.60;3.10;;;;;;;9.97;78.43;99011.73;211415;1316;139282;-60
2021/12/31 05:07:22;;;;;;;3.40;2.60;;;;;;;9.96;78.15;99018.34;211514;1316;140637;-59
2021/12/31 05:12:29;;;;;;;2.50;2.20;;;;;;;10.01;78.24;99017.86;211542;1316;139370;-59
2021/12/31 05:17:32;;;;;;;3.20;2.60;;;;;;;10.06;78.37;99016.00;211448;1316;140404;-59
2021/12/31 05:22:35;;;;;;;4.10;2.80;;;;;;;10.06;78.38;98999.67;211497;1316;139084;-60
2021/12/31 05:27:38;;;;;;;2.70;2.40;;;;;;;10.05;78.17;99000.79;211462;1316;139154;-61
2021/12/31 05:32:41;;;;;;;4.80;3.10;;;;;;;10.06;78.23;99003.39;211497;1316;138608;-60
2021/12/31 05:37:44;;;;;;;4.10;3.00;;;;;;;10.07;78.43;99009.52;211141;1316;140243;-61
2021/12/31 05:42:47;;;;;;;4.50;3.10;;;;;;;10.06;78.51;99005.01;211499;1316;142551;-60
2021/12/31 05:47:50;;;;;;;4.10;3.70;;;;;;;10.05;78.60;99022.96;211384;1316;138745;-60
2021/12/31 05:52:57;;;;;;;4.80;4.10;;;;;;;10.07;78.60;99026.20;211540;1316;139015;-60
2021/12/31 05:58:02;;;;;;;5.90;4.40;;;;;;;10.06;78.44;99027.36;211596;1311;139408;-58
2021/12/31 06:03:04;;;;;;;5.20;4.40;;;;;;;10.07;78.56;99021.05;211608;1316;139488;-60
2021/12/31 06:08:08;;;;;;;5.70;4.60;;;;;;;10.10;78.91;99020.16;211459;1316;139885;-60
2021/12/31 06:13:12;;;;;;;7.60;5.60;;;;;;;10.10;78.67;99024.62;211650;1316;139559;-60
2021/12/31 06:18:15;;;;;;;6.80;5.40;;;;;;;10.09;78.77;99034.23;211368;1316;138939;-62
2021/12/31 06:23:18;;;;;;;5.00;4.50;;;;;;;10.07;78.80;99032.39;211322;1319;139639;-62
2021/12/31 06:28:22;;;;;;;7.00;6.00;;;;;;;10.10;78.78;99042.31;211030;1319;138735;-59
2021/12/31 06:33:25;;;;;;;6.10;5.00;;;;;;;10.11;78.77;99047.05;211618;1316;139683;-60
2021/12/31 06:38:27;;;;;;;8.90;7.10;;;;;;;10.17;79.01;99052.90;211391;1311;140116;-60
2021/12/31 06:43:31;;;;;;;7.50;5.40;;;;;;;10.32;79.19;99060.52;211521;1320;140917;-65
2021/12/31 06:48:34;;;;;;;7.20;5.50;;;;;;;10.32;78.91;99058.09;211436;1319;139347;-62
2021/12/31 06:53:37;;;;;;;6.40;4.70;;;;;;;10.25;78.62;99042.70;211473;1313;141885;-60
2021/12/31 06:58:40;;;;;;;122.30;80.50;;;;;;;10.23;78.63;99052.38;211279;1322;140685;-57
2021/12/31 07:03:48;;;;;;;8.60;6.40;;;;;;;10.32;79.24;99051.69;211401;1317;139637;-62
2021/12/31 07:08:51;;;;;;;8.30;6.60;;;;;;;10.32;78.86;99057.70;211591;1319;139472;-56
2021/12/31 07:13:54;;;;;;;6.50;4.70;;;;;;;10.36;79.08;99057.47;211609;1316;139634;-59
2021/12/31 07:18:57;;;;;;;5.80;4.70;;;;;;;10.42;78.79;99056.56;211472;1315;139250;-61
2021/12/31 07:24:00;;;;;;;5.60;4.60;;;;;;;10.37;78.46;99061.27;211687;1317;139988;-61
2021/12/31 07:29:03;;;;;;;6.20;4.50;;;;;;;10.29;78.46;99060.74;211568;1314;139887;-60
2021/12/31 07:34:06;;;;;;;6.40;5.00;;;;;;;10.27;78.58;99067.76;211541;1316;141028;-57
2021/12/31 07:39:12;;;;;;;7.90;5.20;;;;;;;10.24;78.74;99066.67;211420;1316;138922;-58
2021/12/31 07:44:15;;;;;;;5.20;4.20;;;;;;;10.24;78.71;99070.08;211423;1316;139431;-60
2021/12/31 07:49:18;;;;;;;4.80;3.70;;;;;;;10.28;79.07;99080.27;211296;1320;139848;-60
2021/12/31 07:54:21;;;;;;;5.60;4.60;;;;;;;10.32;78.82;99082.55;211466;1316;139175;-57
2021/12/31 07:59:24;;;;;;;6.30;4.80;;;;;;;10.35;78.94;99083.60;211205;1316;138438;-58
2021/12/31 08:04:28;;;;;;;5.10;4.40;;;;;;;10.33;78.86;99083.20;211450;1316;140499;-60
2021/12/31 08:09:31;;;;;;;7.00;4.40;;;;;;;10.36;78.68;99086.05;211735;1318;141054;-61
2021/12/31 08:14:34;;;;;;;7.30;5.20;;;;;;;10.39;78.77;99089.71;211506;1316;139698;-58
2021/12/31 08:19:37;;;;;;;8.10;5.40;;;;;;;10.40;79.01;99089.99;211382;1316;139592;-61
2021/12/31 08:24:40;;;;;;;6.20;4.80;;;;;;;10.42;78.94;99093.09;211597;1316;139205;-60
2021/12/31 08:29:43;;;;;;;7.20;5.50;;;;;;;10.50;79.31;99101.51;211421;1316;139296;-59
2021/12/31 08:34:46;;;;;;;8.50;5.40;;;;;;;10.67;79.39;99113.21;211391;1316;139215;-62
2021/12/31 08:39:49;;;;;;;7.40;5.40;;;;;;;10.70;78.99;99112.35;211390;1316;139662;-58
2021/12/31 08:44:52;;;;;;;6.30;4.70;;;;;;;10.64;79.13;99118.89;211537;1316;139806;-60
2021/12/31 08:50:03;;;;;;;7.10;4.90;;;;;;;10.62;78.67;99115.10;211498;1316;139692;-62
2021/12/31 08:55:08;;;;;;;7.20;5.20;;;;;;;10.59;79.02;99121.30;211487;1315;139970;-62
2021/12/31 09:00:12;;;;;;;6.50;4.50;;;;;;;10.58;78.99;99122.64;211412;1316;139506;-61
2021/12/31 09:05:15;;;;;;;8.50;5.70;;;;;;;10.57;78.97;99122.70;211310;1319;139830;-58
2021/12/31 09:10:18;;;;;;;8.20;5.10;;;;;;;10.52;79.08;99129.76;211619;1315;139746;-60
2021/12/31 09:15:21;;;;;;;8.40;5.40;;;;;;;10.54;79.41;99126.08;211695;1321;141600;-62
2021/12/31 09:20:26;;;;;;;6.60;5.20;;;;;;;10.55;79.24;99129.73;211515;1320;139228;-59
2021/12/31 09:25:30;;;;;;;7.30;5.40;;;;;;;10.55;79.23;99132.05;211502;1316;139270;-60
2021/12/31 09:30:33;;;;;;;7.30;4.80;;;;;;;10.57;78.93;99130.36;211288;1320;139343;-58
2021/12/31 09:35:36;;;;;;;12.90;5.70;;;;;;;10.61;79.44;99136.11;211353;1316;139626;-59
2021/12/31 09:40:40;;;;;;;13.80;7.40;;;;;;;10.70;79.60;99140.39;211267;1316;139664;-57
2021/12/31 09:45:45;;;;;;;8.30;5.50;;;;;;;10.75;79.38;99140.23;211526;1316;138746;-58
2021/12/31 09:50:49;;;;;;;;;;;;;;;10.76;79.19;99143.20;211769;1313;138941;-58
2021/12/31 09:55:54;;;;;;;26.20;18.80;;;;;;;10.79;79.33;99147.63;211737;1314;126044;-58
2021/12/31 10:01:01;;;;;;;10.00;6.10;;;;;;;10.89;79.39;99139.38;211286;1316;139345;-60
2021/12/31 10:06:13;;;;;;;8.70;5.90;;;;;;;10.99;79.56;99128.26;211279;1315;140100;-58
2021/12/31 10:11:24;;;;;;;7.70;5.10;;;;;;;11.01;78.75;99121.44;211420;1315;140152;-61
2021/12/31 10:16:39;;;;;;;7.90;5.60;;;;;;;11.02;78.52;99121.89;211367;1316;139577;-58
2021/12/31 10:21:50;;;;;;;70.50;52.10;;;;;;;11.06;78.96;99120.73;211476;1316;139505;-60
2021/12/31 10:26:56;;;;;;;16.40;9.00;;;;;;;11.18;79.21;99123.02;211404;1316;139342;-59
2021/12/31 10:31:59;;;;;;;8.40;5.80;;;;;;;11.27;78.76;99118.31;211196;1316;139550;-61
2021/12/31 10:37:17;;;;;;;8.10;5.50;;;;;;;11.29;78.64;99113.77;211361;1316;140421;-60
2021/12/31 10:42:28;;;;;;;11.10;6.20;;;;;;;11.33;78.36;99109.61;211278;1316;139220;-59
2021/12/31 10:47:39;;;;;;;10.50;7.30;;;;;;;11.35;78.73;99105.58;211360;1315;139134;-60
2021/12/31 10:53:10;;;;;;;10.70;6.20;;;;;;;11.40;78.50;99094.05;211326;1315;139690;-59
2021/12/31 10:58:14;;;;;;;7.70;5.70;;;;;;;11.48;78.38;99087.48;211369;1319;140689;-60
2021/12/31 11:03:19;;;;;;;68.10;47.00;;;;;;;11.62;78.93;99088.92;211456;1316;139008;-57
2021/12/31 11:08:23;;;;;;;12.30;7.30;;;;;;;11.78;78.58;99086.27;211570;1316;140322;-60
2021/12/31 11:13:30;;;;;;;9.60;5.90;;;;;;;11.77;78.21;99080.25;211485;1313;138923;-61
2021/12/31 11:18:33;;;;;;;9.40;5.60;;;;;;;11.76;77.84;99072.90;211470;1316;139424;-57
2021/12/31 11:23:36;;;;;;;9.80;5.40;;;;;;;11.76;77.98;99075.90;211391;1316;139719;-59
2021/12/31 11:28:41;;;;;;;11.30;6.40;;;;;;;11.75;77.75;99076.30;211316;1315;138891;-61
2021/12/31 11:33:46;;;;;;;9.90;5.90;;;;;;;11.75;77.59;99071.48;211551;1316;141267;-59
2021/12/31 11:38:50;;;;;;;9.70;5.50;;;;;;;11.77;77.50;99060.03;211300;1316;139337;-58
2021/12/31 11:44:13;;;;;;;9.80;5.60;;;;;;;11.82;77.32;99053.84;211472;1315;139953;-57
2021/12/31 11:49:26;;;;;;;12.40;5.90;;;;;;;11.91;77.67;99055.73;211429;1315;139309;-59
2021/12/31 11:54:29;;;;;;;8.90;5.70;;;;;;;11.96;77.70;99054.33;211264;1316;139617;-58
2021/12/31 11:59:35;;;;;;;10.30;5.60;;;;;;;12.05;77.63;99050.45;211384;1316;140483;-61
2021/12/31 12:04:39;;;;;;;;;;;;;;;12.18;77.71;99043.78;211366;1316;140559;-58
2021/12/31 12:09:44;;;;;;;13.70;6.50;;;;;;;12.26;77.43;99030.02;211698;1315;125710;-57
2021/12/31 12:14:53;;;;;;;9.40;5.40;;;;;;;12.32;77.59;99021.25;211321;1316;139179;-60
2021/12/31 12:20:02;;;;;;;9.90;5.00;;;;;;;12.40;77.42;99014.65;211532;1316;139677;-61
2021/12/31 12:25:15;;;;;;;8.90;5.20;;;;;;;12.48;77.18;99015.50;211592;1316;139886;-58
2021/12/31 12:30:20;;;;;;;9.80;5.50;;;;;;;12.57;77.06;99014.17;211608;1316;139153;-56
2021/12/31 12:35:32;;;;;;;9.40;5.10;;;;;;;12.62;77.17;99022.37;211680;1316;138758;-60
2021/12/31 12:40:40;;;;;;;7.90;4.50;;;;;;;12.65;76.74;99021.81;211601;1316;140200;-58
2021/12/31 12:45:45;;;;;;;9.20;4.60;;;;;;;12.65;76.44;99018.63;211544;1316;140249;-60
2021/12/31 12:50:50;;;;;;;7.60;4.60;;;;;;;12.61;76.46;99018.17;211326;1316;139360;-60
2021/12/31 12:56:02;;;;;;;8.70;5.10;;;;;;;12.54;76.38;99019.00;211489;1316;139335;-57
2021/12/31 13:01:06;;;;;;;7.10;4.70;;;;;;;12.47;76.00;99026.05;211496;1316;140171;-58
2021/12/31 13:06:10;;;;;;;9.50;5.10;;;;;;;12.48;76.21;99019.06;211560;1313;139036;-57
2021/12/31 13:11:15;;;;;;;7.60;4.50;;;;;;;12.45;75.88;99007.88;211438;1315;139559;-57
2021/12/31 13:16:18;;;;;;;9.90;5.30;;;;;;;12.46;75.97;99000.75;211475;1315;139190;-60
2021/12/31 13:21:22;;;;;;;8.10;5.20;;;;;;;12.44;75.91;99002.98;211375;1316;138706;-58
2021/12/31 13:26:27;;;;;;;8.80;5.50;;;;;;;12.43;75.79;99004.52;211514;1315;139206;-57
2021/12/31 13:31:39;;;;;;;7.70;5.00;;;;;;;12.42;75.61;99005.06;211514;1314;139510;-64
2021/12/31 13:36:50;;;;;;;10.60;5.30;;;;;;;12.39;75.43;98999.27;211603;1315;138882;-60
2021/12/31 13:42:12;;;;;;;10.40;5.60;;;;;;;12.31;75.26;99002.98;211500;1316;138773;-59
2021/12/31 13:47:17;;;;;;;10.20;5.70;;;;;;;12.28;75.38;99002.14;211450;1316;139315;-58
2021/12/31 13:52:25;;;;;;;9.60;5.50;;;;;;;12.28;75.40;98998.40;211373;1315;139562;-59
2021/12/31 13:57:32;;;;;;;9.10;5.50;;;;;;;12.29;75.53;98996.05;211420;1316;141062;-60
2021/12/31 14:02:39;;;;;;;9.60;5.70;;;;;;;12.26;75.37;99004.94;211300;1316;139818;-59
2021/12/31 14:07:48;;;;;;;10.60;5.40;;;;;;;12.24;75.15;99008.66;211310;1318;139184;-59
2021/12/31 14:12:55;;;;;;;10.00;5.80;;;;;;;12.24;74.78;99015.59;211708;1315;139504;-58
2021/12/31 14:18:01;;;;;;;10.90;5.90;;;;;;;12.25;75.17;99011.79;211594;1316;139735;-59
2021/12/31 14:23:05;;;;;;;11.00;5.80;;;;;;;12.25;74.97;99020.48;211625;1316;139025;-61
2021/12/31 14:28:09;;;;;;;10.30;5.30;;;;;;;12.35;76.33;99015.52;211533;1319;139745;-60
2021/12/31 14:33:13;;;;;;;10.90;6.40;;;;;;;12.98;77.02;99013.02;211731;1316;140038;-59
2021/12/31 14:38:37;;;;;;;10.50;6.00;;;;;;;12.93;74.91;99016.61;211360;1316;140018;-57
2021/12/31 14:43:40;;;;;;;11.80;6.00;;;;;;;12.78;74.41;99013.59;211566;1316;138798;-57
2021/12/31 14:48:43;;;;;;;9.90;5.70;;;;;;;12.61;74.16;99011.05;211380;1318;140962;-64
2021/12/31 14:53:46;;;;;;;9.40;5.50;;;;;;;12.50;74.35;99010.20;211296;1316;139006;-60
2021/12/31 14:58:50;;;;;;;9.20;5.70;;;;;;;12.43;74.05;99009.98;211687;1316;139399;-63
2021/12/31 15:03:53;;;;;;;9.50;5.90;;;;;;;12.38;74.26;99012.67;211688;1314;139491;-60
2021/12/31 15:08:56;;;;;;;9.30;5.20;;;;;;;12.32;74.02;99008.80;211328;1315;139370;-59
2021/12/31 15:14:01;;;;;;;10.50;5.60;;;;;;;12.23;73.75;99006.45;211407;1316;140009;-60
2021/12/31 15:19:08;;;;;;;10.90;5.70;;;;;;;12.15;73.69;99004.70;211448;1316;140020;-59
2021/12/31 15:24:11;;;;;;;10.90;6.20;;;;;;;12.11;73.83;99003.49;211256;1315;138964;-58
2021/12/31 15:29:14;;;;;;;13.50;6.30;;;;;;;12.07;74.03;99008.00;211132;1316;139345;-58
2021/12/31 15:34:17;;;;;;;11.90;6.80;;;;;;;12.05;73.90;99004.25;211267;1317;139883;-58
2021/12/31 15:39:20;;;;;;;11.50;6.70;;;;;;;12.06;74.01;99005.98;211463;1316;140516;-58
2021/12/31 15:44:24;;;;;;;15.10;7.00;;;;;;;12.01;73.89;99009.00;211480;1316;138718;-58
2021/12/31 15:49:27;;;;;;;12.80;6.80;;;;;;;11.97;73.91;99014.92;211472;1314;139329;-58
2021/12/31 15:54:30;;;;;;;15.80;7.00;;;;;;;11.96;73.89;99014.16;211622;1316;139238;-61
2021/12/31 15:59:34;;;;;;;13.80;6.90;;;;;;;11.95;73.71;99007.65;211681;1313;140512;-59
2021/12/31 16:04:37;;;;;;;13.60;7.00;;;;;;;11.92;73.86;98997.00;211284;1315;139292;-59
2021/12/31 16:09:41;;;;;;;11.70;6.40;;;;;;;11.92;73.87;98997.36;211512;1316;139492;-58
2021/12/31 16:14:44;;;;;;;14.20;7.80;;;;;;;11.95;74.11;98994.10;211181;1316;149974;-58
2021/12/31 16:19:47;;;;;;;14.90;7.30;;;;;;;11.94;73.80;98991.69;211489;1316;138926;-60
2021/12/31 16:24:50;;;;;;;13.10;6.90;;;;;;;11.94;73.87;98987.05;211392;1314;140196;-61
2021/12/31 16:30:13;;;;;;;11.70;6.40;;;;;;;11.99;73.81;98983.38;211428;1316;140414;-58
2021/12/31 16:35:17;;;;;;;14.10;7.60;;;;;;;11.99;73.81;98978.89;211566;1316;139015;-58
2021/12/31 16:40:23;;;;;;;13.00;7.20;;;;;;;11.96;73.53;98979.12;211399;1316;139203;-57
2021/12/31 16:45:26;;;;;;;15.30;7.50;;;;;;;11.96;73.77;98972.89;211664;1316;139630;-65
2021/12/31 16:50:29;;;;;;;15.90;7.50;;;;;;;11.92;73.51;98967.81;211300;1315;139353;-65
2021/12/31 16:55:32;;;;;;;12.50;6.90;;;;;;;11.91;73.34;98965.27;211400;1316;139542;-58
2021/12/31 17:00:35;;;;;;;15.90;8.30;;;;;;;11.93;73.70;98959.63;211378;1315;139868;-60
2021/12/31 17:05:38;;;;;;;14.40;8.30;;;;;;;11.96;73.59;98958.68;211275;1315;139553;-59
2021/12/31 17:10:42;;;;;;;12.50;7.20;;;;;;;11.99;73.27;98963.46;211360;1316;139110;-60
2021/12/31 17:15:50;;;;;;;14.10;7.90;;;;;;;11.99;73.82;98959.92;211520;1316;139351;-60
2021/12/31 17:20:54;;;;;;;15.40;8.40;;;;;;;11.96;73.02;98953.34;211425;1315;139605;-61
2021/12/31 17:25:57;;;;;;;19.30;8.70;;;;;;;11.94;73.32;98957.55;211428;1316;139798;-63
2021/12/31 17:31:00;;;;;;;14.90;8.40;;;;;;;11.93;73.43;98954.08;211455;1315;139020;-61
2021/12/31 17:36:04;;;;;;;15.70;7.90;;;;;;;11.95;73.10;98949.16;211349;1316;141236;-60
2021/12/31 17:41:07;;;;;;;12.10;7.00;;;;;;;11.99;72.97;98943.89;211427;1313;139615;-58
2021/12/31 17:46:10;;;;;;;15.60;7.90;;;;;;;12.01;73.25;98937.34;211287;1316;139547;-59
2021/12/31 17:51:14;;;;;;;14.90;7.70;;;;;;;12.01;72.97;98937.54;211672;1316;139449;-62
2021/12/31 17:56:17;;;;;;;16.60;8.60;;;;;;;12.00;72.92;98931.89;211523;1314;139543;-59
2021/12/31 18:01:20;;;;;;;12.30;7.10;;;;;;;12.00;72.98;98932.98;211593;1316;139758;-61
2021/12/31 18:06:23;;;;;;;12.80;7.20;;;;;;;12.01;72.94;98932.66;211254;1314;139342;-61
2021/12/31 18:11:27;;;;;;;12.80;6.80;;;;;;;12.01;72.58;98931.11;211361;1316;139609;-61
2021/12/31 18:16:31;;;;;;;13.40;6.90;;;;;;;12.02;72.84;98932.81;211569;1315;139567;-57
2021/12/31 18:21:34;;;;;;;13.70;6.90;;;;;;;12.02;72.88;98930.48;211551;1315;139155;-58
2021/12/31 18:26:37;;;;;;;14.40;6.30;;;;;;;12.06;72.77;98927.22;211404;1315;139184;-64
2021/12/31 18:31:40;;;;;;;11.60;7.00;;;;;;;12.12;72.67;98918.98;211326;1317;139551;-59
2021/12/31 18:36:43;;;;;;;14.60;8.50;;;;;;;12.14;72.45;98906.38;211435;1316;140229;-65
2021/12/31 18:41:47;;;;;;;12.90;7.10;;;;;;;12.16;72.60;98899.16;211359;1316;140386;-64
2021/12/31 18:47:06;;;;;;;13.50;6.90;;;;;;;12.16;72.35;98895.23;211433;1316;139310;-58
2021/12/31 18:52:09;;;;;;;11.20;6.60;;;;;;;12.17;72.22;98895.88;211388;1316;139733;-60
2021/12/31 18:57:12;;;;;;;10.00;5.70;;;;;;;12.19;72.18;98889.27;211524;1315;139777;-64
2021/12/31 19:02:15;;;;;;;11.00;6.20;;;;;;;12.23;72.17;98880.86;211415;1316;139214;-59
2021/12/31 19:07:18;;;;;;;15.20;5.90;;;;;;;12.24;72.15;98879.14;211480;1316;139092;-58
2021/12/31 19:12:21;;;;;;;13.20;6.20;;;;;;;12.29;72.10;98884.48;211263;1315;140071;-59
2021/12/31 19:17:35;;;;;;;11.10;6.30;;;;;;;12.33;72.09;98892.59;211528;1315;138778;-60
2021/12/31 19:22:38;;;;;;;12.60;6.00;;;;;;;12.33;71.91;98896.16;211217;1316;138804;-62
2021/12/31 19:27:41;;;;;;;11.30;5.80;;;;;;;12.33;71.79;98889.17;211613;1317;139586;-59
2021/12/31 19:32:44;;;;;;;13.20;6.40;;;;;;;12.37;71.71;98889.45;211564;1316;139415;-60
2021/12/31 19:37:47;;;;;;;11.70;6.50;;;;;;;12.38;71.38;98885.97;211440;1316;141231;-65
2021/12/31 19:42:50;;;;;;;12.60;6.50;;;;;;;12.34;71.18;98883.95;211549;1313;138929;-59
2021/12/31 19:47:53;;;;;;;10.40;5.90;;;;;;;12.31;71.61;98887.38;211520;1316;139117;-63
2021/12/31 19:52:56;;;;;;;11.30;6.30;;;;;;;12.33;71.50;98886.57;211509;1317;139915;-61
2021/12/31 19:58:00;;;;;;;12.60;6.40;;;;;;;12.36;71.19;98888.83;211473;1316;139679;-58
2021/12/31 20:03:04;;;;;;;15.90;6.90;;;;;;;12.38;71.15;98890.83;211487;1316;139093;-61
2021/12/31 20:08:10;;;;;;;11.40;6.00;;;;;;;12.35;71.11;98886.92;211348;1316;139794;-63
2021/12/31 20:13:13;;;;;;;;;;;;;;;12.30;70.76;98892.61;211526;1316;139311;-58
2021/12/31 20:18:16;;;;;;;8.60;5.30;;;;;;;12.26;71.17;98891.99;211548;1316;125949;-57
2021/12/31 20:23:19;;;;;;;11.60;5.90;;;;;;;12.25;71.00;98895.06;211442;1319;138987;-63
2021/12/31 20:28:22;;;;;;;10.90;5.80;;;;;;;12.25;71.02;98894.20;211529;1316;140260;-60
2021/12/31 20:33:25;;;;;;;9.90;5.60;;;;;;;12.24;70.79;98893.90;211489;1316;139171;-59
2021/12/31 20:38:28;;;;;;;9.50;5.30;;;;;;;12.23;70.82;98891.34;211363;1316;138821;-60
2021/12/31 20:43:31;;;;;;;10.30;5.30;;;;;;;12.23;70.79;98891.69;211373;1315;139144;-58
2021/12/31 20:48:34;;;;;;;10.20;5.90;;;;;;;12.24;70.89;98892.02;211379;1316;139663;-59
2021/12/31 20:53:37;;;;;;;11.10;6.20;;;;;;;12.23;70.30;98889.23;211479;1316;139390;-62
2021/12/31 20:58:40;;;;;;;11.80;5.00;;;;;;;12.20;70.24;98882.84;211547;1316;139302;-58
2021/12/31 21:03:43;;;;;;;10.90;5.70;;;;;;;12.18;70.04;98879.44;211393;1317;139774;-62
2021/12/31 21:08:46;;;;;;;11.10;6.60;;;;;;;12.17;70.45;98882.54;211304;1316;139324;-62
2021/12/31 21:13:49;;;;;;;8.90;5.70;;;;;;;12.16;70.31;98879.36;211408;1314;138779;-58
2021/12/31 21:18:52;;;;;;;9.60;5.10;;;;;;;12.15;70.24;98878.39;211664;1316;139211;-57
2021/12/31 21:23:58;;;;;;;;;;;;;;;12.13;69.96;98881.76;211329;1315;139281;-57
2021/12/31 21:29:01;;;;;;;7.70;5.30;;;;;;;12.12;70.08;98876.14;211525;1315;125428;-59
2021/12/31 21:34:04;;;;;;;11.60;6.00;;;;;;;12.09;69.82;98880.39;211288;1322;138627;-64
2021/12/31 21:39:07;;;;;;;11.60;6.00;;;;;;;12.07;69.98;98875.40;211383;1322;139119;-59
2021/12/31 21:44:10;;;;;;;9.30;5.20;;;;;;;12.06;69.94;98875.96;211467;1320;138918;-60
2021/12/31 21:49:13;;;;;;;10.20;5.00;;;;;;;12.08;69.83;98873.70;211472;1315;140462;-57
2021/12/31 21:54:16;;;;;;;9.80;5.90;;;;;;;12.08;69.96;98875.65;211342;1316;139541;-63
2021/12/31 21:59:19;;;;;;;8.10;4.90;;;;;;;12.05;69.56;98879.65;211321;1320;138468;-66
2021/12/31 22:04:22;;;;;;;14.10;5.10;;;;;;;11.99;69.59;98878.63;211353;1316;139314;-61
2021/12/31 22:09:25;;;;;;;10.70;5.00;;;;;;;11.98;69.55;98874.08;211558;1316;139568;-56
2021/12/31 22:14:28;;;;;;;10.80;5.70;;;;;;;11.96;69.70;98885.25;211519;1316;139219;-60
2021/12/31 22:19:31;;;;;;;8.00;4.90;;;;;;;11.89;70.01;98895.72;211310;1322;138806;-61
2021/12/31 22:24:35;;;;;;;8.40;4.70;;;;;;;11.79;70.13;98888.69;211188;1324;139281;-58
2021/12/31 22:29:38;;;;;;;15.20;12.40;;;;;;;11.74;70.03;98884.27;211297;1322;140221;-59
2021/12/31 22:34:41;;;;;;;11.00;7.50;;;;;;;11.87;71.84;98891.73;211534;1314;139491;-61
2021/12/31 22:39:45;;;;;;;10.40;6.40;;;;;;;11.78;70.68;98892.14;211499;1316;139400;-57
2021/12/31 22:44:48;;;;;;;11.00;5.70;;;;;;;11.65;70.58;98895.05;211547;1315;140256;-63
2021/12/31 22:49:51;;;;;;;10.80;6.00;;;;;;;11.51;70.94;98895.60;211528;1316;138927;-60
2021/12/31 22:54:54;;;;;;;8.70;5.60;;;;;;;11.38;71.16;98891.53;211542;1316;139012;-58
2021/12/31 22:59:57;;;;;;;11.20;7.50;;;;;;;11.29;71.37;98883.44;211552;1316;138992;-59
2021/12/31 23:05:00;;;;;;;67.70;47.90;;;;;;;11.25;71.28;98889.23;211638;1316;139266;-56
2021/12/31 23:10:04;;;;;;;66.00;45.40;;;;;;;11.21;71.79;98889.08;211694;1316;138778;-60
2021/12/31 23:15:08;;;;;;;46.50;31.50;;;;;;;11.16;71.93;98885.72;211381;1316;139108;-60
2021/12/31 23:20:11;;;;;;;30.10;18.40;;;;;;;11.15;72.14;98887.91;211460;1316;140454;-63
2021/12/31 23:25:14;;;;;;;33.90;23.90;;;;;;;11.10;71.99;98900.34;211469;1319;139139;-58